Time;durP1;ratioP1;P1;durP2;ratioP2;P2;SDS_P1;SDS_P2;PMS_P1;PMS_P2;Temp;Humidity;BMP_temperature;BMP_pressure;BME280_temperature;BME280_humidity;BME280_pressure;Samples;Min_cycle;Max_cycle;Signal;HPM_P1;HPM_P2
2022/02/26 00:02:39;;;;;;;6.80;2.78;;;4.60;93.30;;;;;;6220293;28;20051;-81
2022/02/26 00:05:43;;;;;;;8.20;2.65;;;4.60;93.40;;;;;;6242390;28;20571;-82
2022/02/26 00:08:45;;;;;;;4.88;2.70;;;4.70;93.30;;;;;;6250237;28;20046;-81
2022/02/26 00:11:46;;;;;;;6.28;2.40;;;4.70;93.20;;;;;;6248501;28;20054;-81
2022/02/26 00:14:50;;;;;;;7.05;3.05;;;4.70;93.10;;;;;;6245711;28;20096;-81
2022/02/26 00:17:51;;;;;;;10.82;3.15;;;4.70;93.10;;;;;;6236005;28;20435;-82
2022/02/26 00:20:54;;;;;;;4.53;2.63;;;4.70;93.10;;;;;;6235879;28;20054;-81
2022/02/26 00:23:56;;;;;;;3.97;2.65;;;4.50;93.10;;;;;;6233699;28;20053;-82
2022/02/26 00:26:58;;;;;;;9.25;2.55;;;4.40;93.30;;;;;;6234916;28;20053;-82
2022/02/26 00:30:01;;;;;;;7.68;2.50;;;4.30;93.50;;;;;;6243641;28;20132;-81
2022/02/26 00:33:02;;;;;;;4.65;2.92;;;4.10;93.70;;;;;;6241277;28;20504;-81
2022/02/26 00:36:05;;;;;;;4.15;2.75;;;4.10;93.90;;;;;;6228238;28;20042;-82
2022/02/26 00:39:07;;;;;;;8.60;3.35;;;4.00;94.00;;;;;;6235293;28;20053;-82
2022/02/26 00:42:09;;;;;;;6.00;3.00;;;4.10;94.10;;;;;;6233418;28;20121;-81
2022/02/26 00:45:12;;;;;;;9.00;2.72;;;4.10;94.10;;;;;;6233746;28;20056;-82
2022/02/26 00:48:14;;;;;;;6.20;3.45;;;4.20;93.90;;;;;;6234225;28;20077;-81
2022/02/26 00:51:15;;;;;;;6.55;3.50;;;4.30;93.80;;;;;;6234657;28;20053;-81
2022/02/26 00:54:17;;;;;;;5.93;2.88;;;4.20;93.80;;;;;;6233611;28;20052;-81
2022/02/26 00:57:19;;;;;;;8.15;3.45;;;4.30;93.90;;;;;;6234098;28;20069;-82
2022/02/26 01:00:23;;;;;;;8.13;4.15;;;4.40;93.80;;;;;;6233260;28;20053;-81
2022/02/26 01:03:24;;;;;;;6.53;3.83;;;4.50;93.50;;;;;;6228836;28;20179;-81
2022/02/26 01:06:26;;;;;;;6.22;3.97;;;4.60;93.40;;;;;;6225243;28;20053;-82
2022/02/26 01:09:28;;;;;;;6.13;2.95;;;4.70;93.40;;;;;;6233936;28;20054;-82
2022/02/26 01:12:30;;;;;;;8.85;3.83;;;4.80;93.30;;;;;;6231358;28;20131;-83
2022/02/26 01:15:33;;;;;;;9.48;4.10;;;4.90;93.10;;;;;;6231643;28;20045;-83
2022/02/26 01:18:35;;;;;;;8.43;4.40;;;4.90;93.00;;;;;;6230995;28;20486;-83
2022/02/26 01:21:37;;;;;;;5.32;3.25;;;5.00;93.00;;;;;;6230985;28;20050;-82
2022/02/26 01:24:40;;;;;;;6.22;3.10;;;5.00;92.90;;;;;;6230242;28;20136;-82
2022/02/26 01:27:45;;;;;;;9.65;3.95;;;5.10;92.90;;;;;;6229694;28;20042;-83
2022/02/26 01:30:48;;;;;;;9.38;4.38;;;5.10;92.80;;;;;;6231191;28;20124;-83
2022/02/26 01:33:50;;;;;;;13.13;4.18;;;5.20;93.10;;;;;;6204659;28;20054;-83
2022/02/26 01:36:52;;;;;;;6.32;4.10;;;5.30;92.70;;;;;;6220375;28;20595;-83
2022/02/26 01:39:54;;;;;;;9.57;3.97;;;5.20;92.60;;;;;;6222142;28;20046;-82
2022/02/26 01:42:56;;;;;;;11.82;4.72;;;5.20;92.60;;;;;;6216705;28;20114;-82
2022/02/26 01:45:59;;;;;;;8.93;3.97;;;5.20;92.60;;;;;;6215975;28;20089;-83
2022/02/26 01:49:01;;;;;;;8.73;4.30;;;5.20;92.40;;;;;;6214545;28;20129;-81
2022/02/26 01:52:03;;;;;;;11.27;3.45;;;5.10;92.60;;;;;;6212473;28;20046;-83
2022/02/26 01:55:06;;;;;;;9.57;4.03;;;5.00;92.50;;;;;;6212900;28;20047;-82
2022/02/26 01:58:09;;;;;;;11.00;3.88;;;4.90;92.60;;;;;;6212946;28;20042;-81
2022/02/26 02:01:12;;;;;;;8.30;3.05;;;4.90;92.80;;;;;;6214433;28;20129;-82
2022/02/26 02:04:15;;;;;;;10.52;4.15;;;4.90;92.80;;;;;;6221018;28;20050;-83
2022/02/26 02:07:17;;;;;;;8.20;4.07;;;4.90;92.80;;;;;;6236086;28;20053;-81
2022/02/26 02:10:20;;;;;;;9.55;3.95;;;4.90;92.70;;;;;;6239399;28;20101;-82
2022/02/26 02:13:22;;;;;;;9.70;3.08;;;4.90;92.70;;;;;;6239705;28;20081;-82
2022/02/26 02:16:26;;;;;;;9.70;4.25;;;5.00;92.70;;;;;;6237989;28;20046;-83
2022/02/26 02:19:28;;;;;;;14.13;4.10;;;4.90;92.70;;;;;;6238708;28;20122;-83
2022/02/26 02:22:31;;;;;;;8.60;4.07;;;4.90;92.60;;;;;;6238347;28;20128;-82
2022/02/26 02:25:35;;;;;;;7.53;4.22;;;4.90;92.60;;;;;;6239643;28;20057;-83
2022/02/26 02:28:38;;;;;;;10.32;4.38;;;4.90;92.60;;;;;;6239744;28;20105;-83
2022/02/26 02:31:40;;;;;;;12.68;4.55;;;4.80;92.50;;;;;;6243310;28;20077;-82
2022/02/26 02:34:42;;;;;;;7.10;4.35;;;4.80;92.60;;;;;;6229346;28;20069;-81
2022/02/26 02:37:45;;;;;;;7.63;4.00;;;4.80;92.60;;;;;;6241561;28;20496;-82
2022/02/26 02:40:49;;;;;;;7.25;3.88;;;4.90;92.60;;;;;;6231492;28;20121;-82
2022/02/26 02:43:57;;;;;;;10.38;4.20;;;4.90;92.50;;;;;;6229607;28;20056;-82
2022/02/26 02:46:59;;;;;;;7.25;3.60;;;4.90;92.40;;;;;;6217386;28;20114;-83
2022/02/26 02:50:01;;;;;;;6.60;3.40;;;4.70;92.30;;;;;;6229482;28;20053;-82
2022/02/26 02:53:12;;;;;;;6.90;3.00;;;4.60;92.40;;;;;;6235170;28;20080;-83
2022/02/26 02:56:14;;;;;;;6.60;3.28;;;4.40;92.60;;;;;;6229211;28;20069;-82
2022/02/26 02:59:16;;;;;;;7.18;4.07;;;4.20;92.70;;;;;;6234015;28;20053;-83
2022/02/26 03:02:24;;;;;;;8.60;3.95;;;4.00;92.70;;;;;;6236320;28;20081;-81
2022/02/26 03:05:26;;;;;;;6.80;3.20;;;3.90;92.70;;;;;;6226759;28;20101;-83
2022/02/26 03:08:29;;;;;;;8.07;4.68;;;3.80;92.80;;;;;;6239271;28;20066;-83
2022/02/26 03:11:31;;;;;;;7.82;3.58;;;3.70;92.80;;;;;;6233907;28;20117;-83
2022/02/26 03:14:33;;;;;;;8.00;2.83;;;3.60;92.80;;;;;;6229082;28;20057;-83
2022/02/26 03:17:35;;;;;;;6.97;3.35;;;3.50;92.80;;;;;;6229597;28;20046;-82
2022/02/26 03:20:37;;;;;;;9.50;4.68;;;3.40;92.80;;;;;;6230563;28;20300;-83
2022/02/26 03:23:40;;;;;;;13.10;4.63;;;3.30;92.90;;;;;;6232952;28;20050;-83
2022/02/26 03:26:42;;;;;;;6.68;3.80;;;3.30;92.80;;;;;;6235086;28;20053;-82
2022/02/26 03:29:45;;;;;;;13.55;5.32;;;3.20;92.80;;;;;;6230983;28;20531;-82
2022/02/26 03:32:46;;;;;;;13.05;5.22;;;3.10;92.80;;;;;;6224781;28;20057;-82
2022/02/26 03:35:48;;;;;;;13.88;5.05;;;3.00;92.80;;;;;;6221345;28;20113;-82
2022/02/26 03:38:51;;;;;;;15.38;6.60;;;2.90;92.90;;;;;;6214027;28;20050;-82
2022/02/26 03:41:53;;;;;;;12.23;6.38;;;2.90;92.90;;;;;;6207143;28;20150;-82
2022/02/26 03:44:55;;;;;;;13.73;6.37;;;2.80;93.00;;;;;;6205377;28;20162;-83
2022/02/26 03:47:57;;;;;;;14.27;5.70;;;2.70;93.00;;;;;;6206715;28;20513;-82
2022/02/26 03:51:04;;;;;;;18.50;6.60;;;2.60;93.10;;;;;;6207141;28;20066;-83
2022/02/26 03:54:08;;;;;;;;;;;2.60;93.20;;;;;;6205307;28;20108;-83
2022/02/26 03:57:09;;;;;;;;;;;2.50;93.20;;;;;;6205616;28;20009;-83
2022/02/26 04:00:12;;;;;;;;;;;2.50;93.20;;;;;;6205851;28;19984;-82
2022/02/26 04:03:13;;;;;;;;;;;2.40;93.20;;;;;;6211379;28;20380;-83
2022/02/26 04:06:15;;;;;;;;;;;2.30;93.40;;;;;;6222973;28;19944;-82
2022/02/26 04:09:18;;;;;;;;;;;2.20;93.60;;;;;;6231569;28;19987;-82
2022/02/26 04:12:20;;;;;;;;;;;2.20;93.60;;;;;;6230735;28;20341;-83
2022/02/26 04:15:22;;;;;;;;;;;2.00;93.60;;;;;;6230035;28;20003;-83
2022/02/26 04:18:23;;;;;;;;;;;1.90;93.80;;;;;;6232785;28;19964;-82
2022/02/26 04:21:25;;;;;;;;;;;1.80;93.90;;;;;;6234436;28;19921;-82
2022/02/26 04:24:28;;;;;;;;;;;1.70;94.00;;;;;;6231869;28;20284;-82
2022/02/26 04:27:30;;;;;;;;;;;1.80;94.20;;;;;;6231171;28;19921;-83
2022/02/26 04:30:33;;;;;;;;;;;1.80;94.10;;;;;;6232027;28;19927;-82
2022/02/26 04:33:35;;;;;;;;;;;1.80;94.10;;;;;;6226388;28;20002;-83
2022/02/26 04:36:37;;;;;;;;;;;1.80;94.10;;;;;;6221672;28;19949;-81
2022/02/26 04:39:40;;;;;;;;;;;1.80;94.10;;;;;;6229989;28;20037;-83
2022/02/26 04:42:42;;;;;;;;;;;1.80;94.00;;;;;;6230234;28;19928;-81
2022/02/26 04:45:45;;;;;;;;;;;1.80;94.10;;;;;;6229665;28;19922;-81
2022/02/26 04:48:46;;;;;;;;;;;1.70;94.00;;;;;;6229942;28;20268;-82
2022/02/26 04:51:48;;;;;;;;;;;1.70;94.10;;;;;;6230511;28;19988;-81
2022/02/26 04:54:51;;;;;;;;;;;1.70;94.20;;;;;;6230301;28;19921;-82
2022/02/26 04:57:53;;;;;;;;;;;1.70;94.10;;;;;;6231238;28;19928;-81
2022/02/26 05:00:54;;;;;;;;;;;1.70;94.00;;;;;;6218062;28;19989;-83
2022/02/26 05:03:56;;;;;;;;;;;1.60;94.00;;;;;;6216120;28;20000;-82
2022/02/26 05:06:58;;;;;;;;;;;1.60;94.00;;;;;;6212980;28;20064;-83
2022/02/26 05:10:01;;;;;;;;;;;1.50;94.20;;;;;;6204970;28;19925;-82
2022/02/26 05:13:03;;;;;;;;;;;1.40;94.20;;;;;;6204878;28;20004;-82
2022/02/26 05:16:07;;;;;;;;;;;1.50;94.40;;;;;;6203705;28;19922;-82
2022/02/26 05:19:13;;;;;;;;;;;1.50;94.50;;;;;;6203913;28;19922;-82
2022/02/26 05:22:15;;;;;;;;;;;1.60;94.50;;;;;;6203295;28;19929;-83
2022/02/26 05:25:23;;;;;;;;;;;1.60;94.40;;;;;;6204585;28;19928;-82
2022/02/26 05:28:25;;;;;;;;;;;1.60;94.30;;;;;;6201658;28;20016;-83
2022/02/26 05:31:27;;;;;;;;;;;1.50;94.20;;;;;;6204358;28;19981;-83
2022/02/26 05:34:35;;;;;;;;;;;1.50;94.20;;;;;;6210786;28;20380;-82
2022/02/26 05:37:37;;;;;;;;;;;1.50;94.00;;;;;;6226281;28;19925;-83
2022/02/26 05:44:18;;;;;;;;;;;1.50;94.10;;;;;;6199332;28;19964;-81
2022/02/26 05:51:01;;;;;;;;;;;1.50;94.20;;;;;;6214614;28;19917;-82
2022/02/26 05:54:08;;;;;;;;;;;1.40;94.20;;;;;;6226859;28;19933;-82
2022/02/26 05:57:12;;;;;;;;;;;1.50;94.40;;;;;;6227793;28;20016;-83
2022/02/26 06:00:24;;;;;;;;;;;1.50;94.50;;;;;;6217181;28;19922;-83
2022/02/26 06:17:39;;;;;;;;;;;1.60;94.00;;;;;;6226868;28;20009;-82
2022/02/26 06:20:43;;;;;;;;;;;1.60;94.00;;;;;;6227317;28;19921;-81
2022/02/26 06:23:45;;;;;;;;;;;1.60;94.00;;;;;;6227586;28;19928;-81
2022/02/26 06:41:25;;;;;;;;;;;1.70;94.10;;;;;;6201994;28;19909;-83
2022/02/26 06:44:32;;;;;;;;;;;1.70;94.00;;;;;;6174875;28;19926;-82
2022/02/26 06:47:34;;;;;;;;;;;1.70;94.00;;;;;;6200173;28;19979;-83
2022/02/26 06:50:38;;;;;;;;;;;1.70;94.10;;;;;;6199184;28;20360;-83
2022/02/26 06:53:44;;;;;;;;;;;1.80;94.00;;;;;;6200447;28;20395;-82
2022/02/26 06:56:49;;;;;;;;;;;1.90;93.90;;;;;;6195070;28;19964;-82
2022/02/26 06:59:57;;;;;;;;;;;2.00;93.90;;;;;;6225974;28;19921;-81
2022/02/26 07:02:59;;;;;;;;;;;2.10;93.90;;;;;;6228454;28;19972;-83
2022/02/26 07:06:01;;;;;;;;;;;2.30;93.70;;;;;;6221764;28;19921;-81
2022/02/26 07:09:03;;;;;;;;;;;2.50;93.50;;;;;;6230447;28;19931;-83
2022/02/26 07:12:06;;;;;;;;;;;2.60;93.50;;;;;;6229019;28;19936;-82
2022/02/26 07:15:10;;;;;;;;;;;2.80;93.50;;;;;;6229369;28;19977;-83
2022/02/26 07:18:12;;;;;;;;;;;3.00;93.30;;;;;;6228109;28;19921;-83
2022/02/26 07:21:14;;;;;;;;;;;3.20;93.00;;;;;;6229847;28;20385;-83
2022/02/26 07:24:21;;;;;;;;;;;3.30;92.90;;;;;;6210470;28;19921;-83
2022/02/26 07:27:30;;;;;;;;;;;3.50;92.90;;;;;;6218055;28;19925;-83
2022/02/26 07:30:35;;;;;;;;;;;3.50;92.70;;;;;;6228352;28;19921;-83
2022/02/26 07:33:42;;;;;;;;;;;3.70;92.60;;;;;;6223522;28;20016;-83
2022/02/26 07:36:56;;;;;;;;;;;3.80;92.50;;;;;;6165711;28;19944;-82
2022/02/26 07:39:58;;;;;;;;;;;3.90;92.50;;;;;;6228414;28;19921;-81
2022/02/26 07:43:00;;;;;;;;;;;4.10;92.50;;;;;;6227967;28;19952;-82
2022/02/26 07:46:03;;;;;;;;;;;4.20;92.40;;;;;;6237323;28;21920;-81
2022/02/26 07:49:06;;;;;;;;;;;4.40;92.40;;;;;;6234330;28;19943;-82
2022/02/26 07:52:14;;;;;;;;;;;4.60;92.20;;;;;;6216574;28;19925;-83
2022/02/26 07:55:17;;;;;;;;;;;4.70;92.10;;;;;;6209143;28;19922;-82
2022/02/26 07:58:20;;;;;;;;;;;4.90;92.00;;;;;;6189908;28;19921;-82
2022/02/26 08:01:28;;;;;;;;;;;5.10;91.90;;;;;;6208331;28;19953;-83
2022/02/26 08:07:48;;;;;;;;;;;5.50;91.80;;;;;;6228273;28;19917;-82
2022/02/26 08:10:53;;;;;;;;;;;5.70;91.70;;;;;;6219473;28;20000;-82
2022/02/26 08:13:57;;;;;;;;;;;5.90;91.80;;;;;;6229880;28;19921;-82
2022/02/26 08:17:00;;;;;;;;;;;6.20;91.40;;;;;;6232394;28;19928;-82
2022/02/26 08:20:01;;;;;;;;;;;6.60;91.30;;;;;;6232047;28;19928;-81
2022/02/26 08:23:03;;;;;;;;;;;6.90;90.70;;;;;;6231952;28;19921;-82
2022/02/26 08:26:05;;;;;;;;;;;7.10;90.00;;;;;;6231524;28;20397;-83
2022/02/26 08:29:07;;;;;;;;;;;7.40;89.90;;;;;;6232672;28;19921;-83
2022/02/26 08:32:10;;;;;;;;;;;7.60;89.10;;;;;;6231955;28;20012;-83
2022/02/26 08:35:12;;;;;;;;;;;7.60;88.70;;;;;;6219861;28;19928;-82
2022/02/26 08:38:14;;;;;;;;;;;7.90;88.10;;;;;;6207630;28;20307;-81
2022/02/26 08:41:18;;;;;;;;;;;8.10;88.00;;;;;;6208148;28;19921;-82
2022/02/26 08:44:22;;;;;;;;;;;8.80;87.20;;;;;;6206121;28;19922;-81
2022/02/26 08:47:30;;;;;;;;;;;9.40;85.00;;;;;;6197279;28;19928;-83
2022/02/26 08:50:36;;;;;;;;;;;9.60;84.40;;;;;;6207556;28;19922;-83
2022/02/26 08:53:53;;;;;;;;;;;9.60;83.40;;;;;;6215043;28;19985;-82
2022/02/26 08:56:55;;;;;;;;;;;9.60;83.90;;;;;;6211850;28;19952;-83
2022/02/26 09:03:24;;;;;;;;;;;11.80;79.70;;;;;;6200582;28;20015;-84
2022/02/26 09:09:51;;;;;;;;;;;13.10;72.80;;;;;;6228564;28;20298;-82
2022/02/26 09:12:54;;;;;;;;;;;12.90;71.60;;;;;;6230835;28;19922;-83
2022/02/26 09:15:56;;;;;;;;;;;13.50;71.50;;;;;;6230219;28;19943;-82
2022/02/26 09:18:59;;;;;;;;;;;14.30;67.50;;;;;;6230627;28;20012;-83
2022/02/26 09:22:03;;;;;;;;;;;14.50;66.50;;;;;;6229940;28;19925;-84
2022/02/26 09:25:05;;;;;;;;;;;14.70;65.20;;;;;;6230798;28;19921;-82
2022/02/26 09:28:06;;;;;;;;;;;15.10;66.60;;;;;;6230766;28;19984;-81
2022/02/26 09:31:08;;;;;;;;;;;15.80;65.90;;;;;;6230609;28;20012;-81
2022/02/26 09:34:11;;;;;;;;;;;16.20;62.30;;;;;;6219941;28;19921;-82
2022/02/26 09:37:13;;;;;;;;;;;15.80;62.60;;;;;;6210749;28;19929;-82
2022/02/26 09:40:15;;;;;;;;;;;15.50;62.20;;;;;;6206268;28;20004;-82
2022/02/26 09:43:16;;;;;;;;;;;15.20;56.70;;;;;;6204970;28;19928;-80
2022/02/26 09:46:18;;;;;;;;;;;14.70;56.80;;;;;;6204189;28;19926;-83
2022/02/26 09:49:21;;;;;;;;;;;14.20;59.10;;;;;;6204766;28;20450;-82
2022/02/26 09:52:23;;;;;;;;;;;13.70;60.10;;;;;;6203812;28;20411;-80
2022/02/26 09:55:25;;;;;;;;;;;13.70;59.90;;;;;;6186272;28;20407;-82
2022/02/26 10:20:16;;;;;;;;;;;13.00;56.30;;;;;;6177349;26;19922;-83
2022/02/26 10:23:24;;;;;;;;;;;12.90;58.20;;;;;;6090398;28;19924;-82
2022/02/26 10:26:31;;;;;;;;;;;12.80;52.80;;;;;;6157885;28;19922;-80
2022/02/26 10:29:39;;;;;;;;;;;12.50;51.30;;;;;;6147515;28;19926;-81
2022/02/26 10:32:42;;;;;;;;;;;12.30;51.90;;;;;;6214544;23;19951;-81
2022/02/26 10:35:54;;;;;;;;;;;12.60;51.10;;;;;;6178888;28;19922;-80
2022/02/26 10:46:14;;;;;;;;;;;13.80;48.00;;;;;;6311019;22;19936;-80
2022/02/26 11:01:00;;;;;;;;;;;15.80;43.60;;;;;;6102829;29;19923;-82
2022/02/26 11:04:19;;;;;;;;;;;15.50;44.20;;;;;;6220283;28;19929;-81
2022/02/26 11:14:46;;;;;;;;;;;13.30;45.00;;;;;;6203252;22;20016;-81
2022/02/26 11:17:48;;;;;;;;;;;12.50;46.00;;;;;;6203045;28;19957;-81
2022/02/26 11:20:51;;;;;;;;;;;12.40;47.60;;;;;;6226001;28;19976;-81
2022/02/26 11:27:53;;;;;;;;;;;12.40;47.50;;;;;;6151847;28;19922;-81
2022/02/26 11:30:56;;;;;;;;;;;12.80;48.10;;;;;;6215446;28;19944;-79
2022/02/26 11:34:01;;;;;;;;;;;13.30;46.00;;;;;;6239535;28;20290;-81
2022/02/26 11:37:29;;;;;;;;;;;13.70;45.60;;;;;;6239608;28;20302;-81
2022/02/26 11:40:40;;;;;;;;;;;14.00;43.80;;;;;;6225858;28;20056;-80
2022/02/26 11:43:45;;;;;;;;;;;14.40;43.80;;;;;;6217856;28;19921;-81
2022/02/26 11:46:47;;;;;;;;;;;14.90;41.20;;;;;;6207474;28;20052;-80
2022/02/26 11:49:55;;;;;;;;;;;15.20;41.30;;;;;;6207041;28;19922;-82
2022/02/26 11:52:58;;;;;;;;;;;15.50;40.90;;;;;;6249598;28;19921;-80
2022/02/26 11:56:05;;;;;;;;;;;15.20;39.10;;;;;;6255317;28;19921;-81
2022/02/26 11:59:06;;;;;;;;;;;14.20;39.60;;;;;;6247939;28;19921;-80
2022/02/26 12:05:30;;;;;;;;;;;12.60;43.90;;;;;;6196196;28;20379;-80
2022/02/26 12:08:36;;;;;;;;;;;12.80;45.20;;;;;;6192376;28;19926;-81
2022/02/26 12:11:40;;;;;;;;;;;13.20;42.90;;;;;;6254263;28;19921;-80
2022/02/26 12:14:58;;;;;;;;;;;13.80;44.90;;;;;;6252037;28;19932;-79
2022/02/26 12:18:16;;;;;;;;;;;14.30;42.60;;;;;;6251903;28;19928;-82
2022/02/26 12:21:19;;;;;;;;;;;14.60;44.00;;;;;;6251881;28;19924;-80
2022/02/26 12:24:30;;;;;;;;;;;15.30;41.70;;;;;;6252113;28;19921;-79
2022/02/26 12:27:37;;;;;;;;;;;15.50;41.60;;;;;;6251904;28;19925;-81
2022/02/26 12:30:56;;;;;;;;;;;15.80;39.50;;;;;;6262129;28;20382;-81
2022/02/26 12:33:58;;;;;;;;;;;16.10;38.90;;;;;;6245546;28;20302;-81
2022/02/26 12:37:18;;;;;;;;;;;16.40;37.90;;;;;;6270260;28;19999;-81
2022/02/26 12:40:21;;;;;;;;;;;15.90;38.40;;;;;;6276065;28;19927;-81
2022/02/26 12:43:29;;;;;;;;;;;15.30;38.20;;;;;;6252556;28;20039;-80
2022/02/26 12:46:34;;;;;;;;;;;14.70;38.50;;;;;;6247479;28;19932;-81
2022/02/26 12:49:43;;;;;;;;;;;14.20;39.80;;;;;;6258782;28;20382;-81
2022/02/26 12:52:45;;;;;;;;;;;14.10;39.70;;;;;;6254925;28;19928;-79
2022/02/26 12:55:47;;;;;;;;;;;14.10;40.50;;;;;;6255523;28;19949;-79
2022/02/26 12:58:51;;;;;;;;;;;14.50;39.70;;;;;;6253870;28;20316;-81
2022/02/26 13:01:54;;;;;;;;;;;14.60;37.60;;;;;;6254448;28;20329;-81
2022/02/26 13:05:01;;;;;;;;;;;14.00;38.90;;;;;;6264130;28;19988;-80
2022/02/26 13:11:32;;;;;;;;;;;14.10;39.20;;;;;;6277471;28;19921;-80
2022/02/26 13:18:15;;;;;;;;;;;14.20;37.80;;;;;;6213564;28;19988;-80
2022/02/26 13:21:18;;;;;;;;;;;14.10;37.80;;;;;;6277961;28;19921;-79
2022/02/26 13:24:19;;;;;;;;;;;14.20;38.10;;;;;;6276408;28;19943;-80
2022/02/26 13:27:23;;;;;;;;;;;14.20;38.60;;;;;;6275660;28;19963;-81
2022/02/26 13:30:27;;;;;;;;;;;14.20;38.50;;;;;;6278280;28;19927;-81
2022/02/26 13:33:28;;;;;;;;;;;14.20;38.30;;;;;;6273914;28;19927;-81
2022/02/26 13:36:30;;;;;;;;;;;14.40;39.90;;;;;;6270360;28;20006;-81
2022/02/26 13:39:31;;;;;;;;;;;14.40;36.90;;;;;;6277246;28;19920;-81
2022/02/26 13:42:34;;;;;;;;;;;13.80;39.20;;;;;;6277631;28;19921;-80
2022/02/26 13:45:39;;;;;;;;;;;13.20;38.90;;;;;;6257296;28;19963;-81
2022/02/26 13:48:49;;;;;;;;;;;12.50;40.20;;;;;;6252912;28;19921;-81
2022/02/26 13:51:51;;;;;;;;;;;12.30;40.70;;;;;;6254348;28;20371;-83
2022/02/26 13:55:02;;;;;;;;;;;12.00;41.70;;;;;;6257006;28;20342;-83
2022/02/26 14:26:56;;;;;;;;;;;13.50;40.60;;;;;;7559494;22;20342;-80
2022/02/26 14:33:42;;;;;;;;;;;12.90;39.30;;;;;;6262010;28;19946;-79
2022/02/26 14:36:53;;;;;;;;;;;12.60;40.00;;;;;;6259814;28;19927;-79
2022/02/26 15:02:03;;;;;;;;;;;11.60;41.70;;;;;;6196156;28;20596;-78
2022/02/26 15:05:21;;;;;;;;;;;11.40;43.20;;;;;;6228315;28;19928;-79
2022/02/26 15:12:14;;;;;;;;;;;11.30;43.20;;;;;;6080467;29;19923;-82
2022/02/26 15:19:10;;;;;;;;;;;10.90;44.00;;;;;;6233594;28;20402;-80
2022/02/26 15:59:08;;;;;;;;;;;9.40;47.20;;;;;;6106817;29;20440;-80
2022/02/26 16:02:25;;;;;;;;;;;9.30;47.90;;;;;;6132372;28;19944;-80
2022/02/26 16:05:29;;;;;;;;;;;9.10;48.30;;;;;;6264604;28;20379;-79
2022/02/26 16:08:31;;;;;;;;;;;8.90;48.80;;;;;;6273273;28;19925;-79
2022/02/26 16:11:33;;;;;;;;;;;8.70;49.10;;;;;;6248808;28;19927;-80
2022/02/26 16:14:34;;;;;;;;;;;8.70;49.20;;;;;;6274534;28;19924;-79
2022/02/26 16:17:41;;;;;;;;;;;8.50;49.60;;;;;;6278355;28;20279;-79
2022/02/26 16:20:44;;;;;;;;;;;8.40;49.90;;;;;;6277086;28;20354;-79
2022/02/26 16:23:51;;;;;;;;;;;8.30;50.10;;;;;;6285175;28;19927;-82
2022/02/26 16:26:55;;;;;;;;;;;8.10;50.60;;;;;;6278158;28;20305;-81
2022/02/26 16:29:58;;;;;;;;;;;8.10;50.90;;;;;;6277189;28;19975;-82
2022/02/26 16:33:01;;;;;;;;;;;8.00;50.60;;;;;;6276142;28;20314;-81
2022/02/26 16:36:05;;;;;;;;;;;7.90;50.90;;;;;;6261254;28;19921;-81
2022/02/26 16:39:07;;;;;;;;;;;7.90;51.00;;;;;;6255046;28;20393;-81
2022/02/26 16:42:09;;;;;;;;;;;7.80;51.50;;;;;;6252838;28;19928;-81
2022/02/26 16:45:10;;;;;;;;;;;7.60;51.90;;;;;;6252783;28;19925;-83
2022/02/26 16:48:12;;;;;;;;;;;7.60;52.30;;;;;;6247932;28;19925;-80
2022/02/26 18:18:45;;;;;;;;;;;6.50;74.40;;;;;;1274732;22;20182;-86
2022/02/26 18:21:53;;;;;;;;;;;6.60;64.00;;;;;;6251018;28;19936;-84
2022/02/26 18:25:20;;;;;;;;;;;6.40;62.00;;;;;;6252379;28;19944;-85
2022/02/26 18:28:24;;;;;;;;;;;6.30;62.30;;;;;;6250448;28;20390;-85
2022/02/26 18:31:26;;;;;;;;;;;6.10;62.70;;;;;;6251575;28;19925;-84
2022/02/26 18:34:33;;;;;;;;;;;6.00;62.80;;;;;;6259290;28;19921;-84
2022/02/26 18:37:35;;;;;;;;;;;5.80;63.70;;;;;;6275273;28;19932;-83
2022/02/26 19:50:25;;;;;;;;;;;3.80;70.30;;;;;;6295352;28;19927;-84
2022/02/26 19:53:37;;;;;;;;;;;3.70;71.10;;;;;;6306564;28;19927;-83
2022/02/26 20:00:31;;;;;;;;;;;3.50;71.80;;;;;;6290106;28;19912;-83
2022/02/26 20:03:33;;;;;;;;;;;3.30;71.70;;;;;;6313382;28;19927;-85
2022/02/26 20:10:16;;;;;;;;;;;3.10;73.00;;;;;;6327032;28;19998;-85
2022/02/26 20:13:18;;;;;;;;;;;3.00;74.10;;;;;;6334282;28;20377;-85
2022/02/26 20:43:08;;;;;;;;;;;2.40;75.60;;;;;;6697654;22;19920;-85
2022/02/26 22:00:20;;;;;;;;;;;1.40;82.70;;;;;;6256189;28;20000;-84
2022/02/26 22:13:41;;;;;;;;;;;1.70;83.60;;;;;;6232996;28;19918;-84
2022/02/26 22:16:56;;;;;;;;;;;1.70;82.70;;;;;;6230684;28;19948;-84
2022/02/26 22:20:05;;;;;;;;;;;1.70;83.60;;;;;;6233252;28;19964;-84
2022/02/26 22:30:00;;;;;;;;;;;1.70;83.90;;;;;;6234999;28;19943;-83
2022/02/26 22:33:04;;;;;;;;;;;1.70;85.70;;;;;;6248056;28;19921;-81
2022/02/26 22:36:07;;;;;;;;;;;1.80;86.00;;;;;;6254703;28;19972;-83
2022/02/26 22:39:09;;;;;;;;;;;1.80;86.10;;;;;;6253498;28;19921;-85
2022/02/26 22:42:11;;;;;;;;;;;1.80;86.70;;;;;;6254413;28;20346;-84
2022/02/26 22:45:13;;;;;;;;;;;1.90;87.00;;;;;;6252741;28;20019;-83
2022/02/26 22:48:16;;;;;;;;;;;1.90;87.00;;;;;;6251621;28;19971;-83
2022/02/26 22:51:17;;;;;;;;;;;2.00;86.90;;;;;;6251512;28;19921;-81
2022/02/26 22:54:19;;;;;;;;;;;2.00;86.70;;;;;;6230607;28;19921;-82
2022/02/26 22:57:21;;;;;;;;;;;2.10;86.80;;;;;;6231093;28;20007;-84
2022/02/26 23:00:43;;;;;;;;;;;2.20;86.60;;;;;;6230884;28;19921;-84
2022/02/26 23:03:46;;;;;;;;;;;2.20;86.60;;;;;;6218766;28;19921;-83
2022/02/26 23:06:48;;;;;;;;;;;2.20;86.40;;;;;;6228550;28;19921;-82
2022/02/26 23:09:50;;;;;;;;;;;2.20;86.30;;;;;;6228631;28;20010;-83
2022/02/26 23:12:52;;;;;;;;;;;2.30;86.30;;;;;;6229555;28;19922;-82
2022/02/26 23:15:54;;;;;;;;;;;2.30;86.20;;;;;;6237526;28;19976;-84
2022/02/26 23:18:57;;;;;;;;;;;2.40;86.10;;;;;;6231431;28;20001;-84
2022/02/26 23:21:59;;;;;;;;;;;2.40;86.00;;;;;;6232696;28;19922;-83
2022/02/26 23:25:11;;;;;;;;;;;2.40;85.90;;;;;;6237524;28;19945;-82
2022/02/26 23:28:13;;;;;;;;;;;2.40;85.80;;;;;;6232376;28;19929;-84
2022/02/26 23:31:15;;;;;;;;;;;2.40;85.70;;;;;;6229641;28;19925;-83
2022/02/26 23:34:17;;;;;;;;;;;2.40;85.80;;;;;;6231470;28;19921;-84
2022/02/26 23:37:19;;;;;;;;;;;2.40;85.70;;;;;;6230867;28;19927;-81
2022/02/26 23:40:21;;;;;;;;;;;2.40;85.70;;;;;;6229524;28;19965;-83
2022/02/26 23:43:22;;;;;;;;;;;2.50;85.70;;;;;;6229377;28;19980;-83
2022/02/26 23:46:24;;;;;;;;;;;2.50;85.70;;;;;;6228799;28;20024;-83
2022/02/26 23:49:27;;;;;;;;;;;2.50;85.80;;;;;;6229941;28;20015;-83
2022/02/26 23:52:28;;;;;;;;;;;2.50;85.80;;;;;;6229426;28;19976;-83
2022/02/26 23:55:30;;;;;;;;;;;2.40;85.80;;;;;;6228583;28;19984;-84
2022/02/26 23:58:32;;;;;;;;;;;2.40;85.90;;;;;;6229672;28;19922;-85
